Time;durP1;ratioP1;P1;durP2;ratioP2;P2;SDS_P1;SDS_P2;PMS_P1;PMS_P2;Temp;Humidity;BMP_temperature;BMP_pressure;BME280_temperature;BME280_humidity;BME280_pressure;Samples;Min_cycle;Max_cycle;Signal;HPM_P1;HPM_P2
2021/12/25 00:02:19;;;;;;;;;;;9.40;99.90;;;;;;5033727;28;19909;-68
2021/12/25 00:04:45;;;;;;;;;;;8.10;99.90;;;;;;5034991;28;19928;-69
2021/12/25 00:07:10;;;;;;;;;;;;;;;;;;5035568;28;20331;-68
2021/12/25 00:09:36;;;;;;;;;;;9.40;99.90;;;;;;5034421;28;19912;-68
2021/12/25 00:12:02;;;;;;;;;;;8.60;99.90;;;;;;5035196;28;19955;-69
2021/12/25 00:14:27;;;;;;;;;;;8.60;99.90;;;;;;5034898;28;20016;-71
2021/12/25 00:16:53;;;;;;;;;;;8.30;99.90;;;;;;5035124;28;19912;-71
2021/12/25 00:19:18;;;;;;;;;;;9.10;99.90;;;;;;5034746;28;19912;-69
2021/12/25 00:21:44;;;;;;;;;;;7.20;99.90;;;;;;5035794;28;19912;-70
2021/12/25 00:24:09;;;;;;;;;;;7.00;99.90;;;;;;5034956;28;19913;-68
2021/12/25 00:34:27;;;;;;;;;;;8.80;99.90;;;;;;5034881;28;20019;-70
2021/12/25 00:36:53;;;;;;;;;;;9.00;99.90;;;;;;5035047;28;19915;-69
2021/12/25 00:39:18;;;;;;;;;;;8.70;99.90;;;;;;5033654;28;20008;-69
2021/12/25 00:41:44;;;;;;;;;;;7.70;99.90;;;;;;5034546;28;19909;-68
2021/12/25 00:44:10;;;;;;;;;;;;;;;;;;5034341;28;19915;-70
2021/12/25 00:46:36;;;;;;;;;;;8.80;99.90;;;;;;5034117;28;19947;-70
2021/12/25 00:49:02;;;;;;;;;;;8.90;99.90;;;;;;5033236;28;19916;-70
2021/12/25 00:51:27;;;;;;;;;;;9.00;99.90;;;;;;5034219;28;20648;-69
2021/12/25 00:53:53;;;;;;;;;;;8.60;99.90;;;;;;5034130;28;19947;-69
2021/12/25 00:56:18;;;;;;;;;;;8.90;99.90;;;;;;5034220;28;19940;-70
2021/12/25 00:58:44;;;;;;;;;;;9.00;99.90;;;;;;5033871;28;19912;-69
2021/12/25 01:01:10;;;;;;;;;;;8.70;99.90;;;;;;5033605;28;20393;-69
2021/12/25 01:03:35;;;;;;;;;;;9.00;99.90;;;;;;5033111;28;19916;-68
2021/12/25 01:06:01;;;;;;;;;;;7.30;99.90;;;;;;5033639;28;19999;-68
2021/12/25 01:08:26;;;;;;;;;;;7.30;99.90;;;;;;5033419;28;19996;-68
2021/12/25 01:10:52;;;;;;;;;;;8.00;99.90;;;;;;5033486;28;20369;-68
2021/12/25 01:13:28;;;;;;;;;;;8.00;99.90;;;;;;5033947;28;20355;-68
2021/12/25 01:31:41;;;;;;;;;;;7.70;99.90;;;;;;5033652;28;19960;-67
2021/12/25 01:39:19;;;;;;;;;;;8.90;99.90;;;;;;5032544;28;19941;-67
2021/12/25 01:49:47;;;;;;;;;;;7.90;99.90;;;;;;5032371;28;19959;-66
2021/12/25 01:52:13;;;;;;;;;;;7.90;99.90;;;;;;5033037;28;19917;-68
2021/12/25 01:54:39;;;;;;;;;;;8.40;99.90;;;;;;5032969;28;19913;-67
2021/12/25 01:57:04;;;;;;;;;;;7.80;99.90;;;;;;5032893;28;19909;-69
2021/12/25 01:59:30;;;;;;;;;;;7.60;99.90;;;;;;5033189;28;19971;-69
2021/12/25 02:01:56;;;;;;;;;;;;;;;;;;5033173;28;19954;-68
2021/12/25 02:04:21;;;;;;;;;;;7.10;99.90;;;;;;5033055;28;20003;-68
2021/12/25 02:06:47;;;;;;;;;;;7.80;99.90;;;;;;5032914;28;20347;-68
2021/12/25 02:09:12;;;;;;;;;;;8.10;99.90;;;;;;5031879;28;20410;-67
2021/12/25 02:11:38;;;;;;;;;;;8.70;99.90;;;;;;5032733;28;20287;-68
2021/12/25 02:14:03;;;;;;;;;;;7.60;99.90;;;;;;5014833;28;19905;-68
2021/12/25 02:16:38;;;;;;;;;;;8.50;99.90;;;;;;5032723;28;19912;-67
2021/12/25 02:19:21;;;;;;;;;;;6.70;99.90;;;;;;5032150;28;20363;-69
2021/12/25 02:21:49;;;;;;;;;;;7.70;99.90;;;;;;5033051;28;19909;-68
2021/12/25 02:24:15;;;;;;;;;;;6.80;99.90;;;;;;5032825;28;20306;-66
2021/12/25 02:26:43;;;;;;;;;;;7.20;99.90;;;;;;5032530;28;20003;-66
2021/12/25 02:29:09;;;;;;;;;;;6.40;99.90;;;;;;5032134;28;19917;-67
2021/12/25 02:31:34;;;;;;;;;;;7.80;99.90;;;;;;5032518;28;19905;-67
2021/12/25 02:34:00;;;;;;;;;;;7.30;99.90;;;;;;5032558;28;19909;-69
2021/12/25 02:36:25;;;;;;;;;;;8.20;99.90;;;;;;5032482;28;19952;-68
2021/12/25 02:38:51;;;;;;;;;;;8.00;99.90;;;;;;5033993;28;20003;-67
2021/12/25 02:41:17;;;;;;;;;;;8.20;99.90;;;;;;5032346;28;19905;-67
2021/12/25 02:43:45;;;;;;;;;;;8.20;99.90;;;;;;5032504;28;19996;-68
2021/12/25 02:46:11;;;;;;;;;;;7.20;99.90;;;;;;5032834;28;19913;-67
2021/12/25 02:48:37;;;;;;;;;;;9.10;99.90;;;;;;5032907;28;19909;-68
2021/12/25 02:51:04;;;;;;;;;;;6.80;99.90;;;;;;5033703;28;19909;-68
2021/12/25 02:53:29;;;;;;;;;;;8.60;99.90;;;;;;5046855;28;19932;-68
2021/12/25 02:55:55;;;;;;;;;;;8.30;99.90;;;;;;5049298;28;19916;-68
2021/12/25 02:58:21;;;;;;;;;;;8.10;99.90;;;;;;5047981;28;20341;-68
2021/12/25 03:00:49;;;;;;;;;;;7.90;99.90;;;;;;5046944;28;19916;-68
2021/12/25 03:03:14;;;;;;;;;;;6.60;99.90;;;;;;5038198;28;19905;-68
2021/12/25 03:05:40;;;;;;;;;;;6.80;99.90;;;;;;5031959;28;19909;-69
2021/12/25 03:08:06;;;;;;;;;;;8.70;99.90;;;;;;5031544;28;19916;-67
2021/12/25 03:10:34;;;;;;;;;;;;;;;;;;5031048;28;19910;-69
2021/12/25 03:13:28;;;;;;;;;;;7.40;99.90;;;;;;5032120;28;20340;-68
2021/12/25 03:15:51;;;;;;;;;;;7.10;99.90;;;;;;5031842;28;19905;-68
2021/12/25 03:18:28;;;;;;;;;;;8.90;99.90;;;;;;5014215;28;19916;-68
2021/12/25 03:20:55;;;;;;;;;;;;;;;;;;5033600;28;19909;-67
2021/12/25 03:23:23;;;;;;;;;;;7.70;99.90;;;;;;5032100;28;19916;-68
2021/12/25 03:25:49;;;;;;;;;;;7.90;99.90;;;;;;5031716;28;20286;-67
2021/12/25 03:28:15;;;;;;;;;;;7.20;99.90;;;;;;5034350;28;19928;-67
2021/12/25 03:30:41;;;;;;;;;;;;;;;;;;5035616;28;19914;-67
2021/12/25 03:33:07;;;;;;;;;;;8.00;99.90;;;;;;5035885;28;20389;-68
2021/12/25 03:35:34;;;;;;;;;;;6.20;99.90;;;;;;5017802;28;19905;-68
2021/12/25 03:38:04;;;;;;;;;;;8.50;99.90;;;;;;5035891;28;19905;-67
2021/12/25 03:40:29;;;;;;;;;;;7.30;99.90;;;;;;5034002;28;20278;-68
2021/12/25 03:42:55;;;;;;;;;;;7.10;99.90;;;;;;5035783;28;20008;-67
2021/12/25 03:45:21;;;;;;;;;;;;;;;;;;5035524;28;19947;-67
2021/12/25 03:47:50;;;;;;;;;;;;;;;;;;5035542;28;19909;-67
2021/12/25 03:53:25;;;;;;;;;;;7.60;99.90;;;;;;5035199;28;19924;-67
2021/12/25 03:58:35;;;;;;;;;;;8.00;99.90;;;;;;5035234;28;19912;-69
2021/12/25 04:01:14;;;;;;;;;;;;;;;;;;5034753;28;20003;-69
2021/12/25 04:03:47;;;;;;;;;;;7.20;99.90;;;;;;5035393;28;19901;-68
2021/12/25 04:06:13;;;;;;;;;;;8.30;99.90;;;;;;5035014;28;19937;-66
2021/12/25 04:08:45;;;;;;;;;;;5.40;99.90;;;;;;5016639;28;19960;-67
2021/12/25 04:11:25;;;;;;;;;;;7.60;99.90;;;;;;5034340;28;19955;-66
2021/12/25 04:13:51;;;;;;;;;;;8.50;99.90;;;;;;5035190;28;19920;-66
2021/12/25 04:16:16;;;;;;;;;;;6.60;99.90;;;;;;5034877;28;19909;-68
2021/12/25 04:18:42;;;;;;;;;;;;;;;;;;5034464;28;19916;-66
2021/12/25 04:21:08;;;;;;;;;;;8.60;99.90;;;;;;5034160;28;19905;-68
2021/12/25 04:23:37;;;;;;;;;;;6.80;99.90;;;;;;5034571;28;20454;-68
2021/12/25 04:26:03;;;;;;;;;;;;;;;;;;5033742;28;19912;-68
2021/12/25 04:28:41;;;;;;;;;;;8.70;99.90;;;;;;5034440;28;19909;-68
2021/12/25 05:06:10;;;;;;;;;;;7.00;99.90;;;;;;5034275;28;19916;-66
2021/12/25 05:08:36;;;;;;;;;;;7.40;99.90;;;;;;5033467;28;19917;-66
2021/12/25 05:11:02;;;;;;;;;;;;;;;;;;5033213;28;19913;-66
2021/12/25 05:13:28;;;;;;;;;;;;;;;;;;5033672;28;20313;-67
2021/12/25 05:15:53;;;;;;;;;;;7.20;99.90;;;;;;5034138;28;19905;-67
2021/12/25 05:18:19;;;;;;;;;;;;;;;;;;5033491;28;19996;-68
2021/12/25 05:20:45;;;;;;;;;;;6.50;99.90;;;;;;5033222;28;19905;-67
2021/12/25 05:23:10;;;;;;;;;;;8.60;99.90;;;;;;5033915;28;19919;-68
2021/12/25 05:25:36;;;;;;;;;;;7.00;99.90;;;;;;5033340;28;20363;-67
2021/12/25 05:28:02;;;;;;;;;;;7.20;99.90;;;;;;5033047;28;19909;-66
2021/12/25 05:30:28;;;;;;;;;;;;;;;;;;5012919;28;19913;-67
2021/12/25 05:32:54;;;;;;;;;;;8.10;99.90;;;;;;5020649;28;19912;-68
2021/12/25 05:35:19;;;;;;;;;;;8.80;99.90;;;;;;5013916;28;19905;-67
2021/12/25 05:37:45;;;;;;;;;;;8.40;99.90;;;;;;5013928;28;19909;-68
2021/12/25 05:40:12;;;;;;;;;;;7.30;99.90;;;;;;5018885;28;19967;-69
2021/12/25 05:42:38;;;;;;;;;;;8.90;99.90;;;;;;5033028;28;19909;-70
2021/12/25 05:45:04;;;;;;;;;;;8.00;99.90;;;;;;5033139;28;19909;-68
2021/12/25 05:47:29;;;;;;;;;;;8.10;99.90;;;;;;5033356;28;20291;-67
2021/12/25 05:49:55;;;;;;;;;;;;;;;;;;5032128;28;19913;-67
2021/12/25 05:52:21;;;;;;;;;;;7.80;99.90;;;;;;5033343;28;19917;-68
2021/12/25 05:54:46;;;;;;;;;;;6.30;99.90;;;;;;5033475;28;20031;-70
2021/12/25 05:57:12;;;;;;;;;;;6.40;99.90;;;;;;5039364;28;19916;-69
2021/12/25 05:59:37;;;;;;;;;;;7.00;99.90;;;;;;5038120;28;19910;-69
2021/12/25 06:02:03;;;;;;;;;;;7.60;99.90;;;;;;5033554;28;20000;-70
2021/12/25 06:04:28;;;;;;;;;;;6.90;99.90;;;;;;5039509;28;19915;-70
2021/12/25 06:06:54;;;;;;;;;;;6.60;99.90;;;;;;5036746;28;19916;-69
2021/12/25 06:09:20;;;;;;;;;;;;;;;;;;5032723;28;20272;-68
2021/12/25 06:11:45;;;;;;;;;;;8.10;99.90;;;;;;5032946;28;19928;-70
2021/12/25 06:14:18;;;;;;;;;;;7.10;99.90;;;;;;5033096;28;19943;-70
2021/12/25 06:16:44;;;;;;;;;;;;;;;;;;5032998;28;19909;-69
2021/12/25 06:19:09;;;;;;;;;;;6.30;99.90;;;;;;5031980;28;20325;-68
2021/12/25 06:21:35;;;;;;;;;;;6.70;99.90;;;;;;5032668;28;19917;-69
2021/12/25 06:24:02;;;;;;;;;;;6.00;99.90;;;;;;5032719;28;19916;-70
2021/12/25 06:26:28;;;;;;;;;;;5.70;99.90;;;;;;5032340;28;19967;-69
2021/12/25 06:28:54;;;;;;;;;;;6.70;99.90;;;;;;5032144;28;19952;-67
2021/12/25 06:31:19;;;;;;;;;;;6.20;99.90;;;;;;5031863;28;19905;-69
2021/12/25 06:33:45;;;;;;;;;;;7.00;99.90;;;;;;5032691;28;20004;-68
2021/12/25 06:36:10;;;;;;;;;;;6.90;99.90;;;;;;5032380;28;19999;-68
2021/12/25 06:38:39;;;;;;;;;;;6.60;99.90;;;;;;5032247;28;20355;-67
2021/12/25 06:41:04;;;;;;;;;;;6.10;99.90;;;;;;5031705;28;19909;-67
2021/12/25 06:43:30;;;;;;;;;;;6.40;99.90;;;;;;5032485;28;19905;-69
2021/12/25 06:45:55;;;;;;;;;;;6.20;99.90;;;;;;5031982;28;19915;-69
2021/12/25 06:48:22;;;;;;;;;;;;;;;;;;5031828;28;20375;-70
2021/12/25 06:50:47;;;;;;;;;;;6.90;99.90;;;;;;5031815;28;19916;-71
2021/12/25 06:53:13;;;;;;;;;;;6.50;99.90;;;;;;5032258;28;19909;-70
2021/12/25 06:55:38;;;;;;;;;;;6.20;99.90;;;;;;5032127;28;19909;-70
2021/12/25 06:58:04;;;;;;;;;;;6.80;99.90;;;;;;5032279;28;19959;-69
2021/12/25 07:00:30;;;;;;;;;;;5.60;99.90;;;;;;5032072;28;20000;-68
2021/12/25 07:02:57;;;;;;;;;;;6.30;99.90;;;;;;5024749;28;20392;-74
2021/12/25 07:05:23;;;;;;;;;;;6.30;99.90;;;;;;5021551;28;20000;-74
2021/12/25 07:07:49;;;;;;;;;;;6.30;99.90;;;;;;5025775;28;20431;-77
2021/12/25 07:10:14;;;;;;;;;;;6.70;99.90;;;;;;5028272;28;19988;-76
2021/12/25 07:12:44;;;;;;;;;;;7.10;99.90;;;;;;5031720;28;20151;-76
2021/12/25 07:15:09;;;;;;;;;;;6.40;99.90;;;;;;5031258;28;19995;-76
2021/12/25 07:17:35;;;;;;;;;;;6.60;99.90;;;;;;5031865;28;19932;-76
2021/12/25 07:20:00;;;;;;;;;;;7.50;99.90;;;;;;5031298;28;19913;-76
2021/12/25 07:22:26;;;;;;;;;;;6.70;99.90;;;;;;5031753;28;19999;-76
2021/12/25 07:24:51;;;;;;;;;;;6.70;99.90;;;;;;5031482;28;19909;-75
2021/12/25 07:27:17;;;;;;;;;;;7.70;99.90;;;;;;5014129;28;19966;-76
2021/12/25 07:29:43;;;;;;;;;;;6.60;99.90;;;;;;5031106;28;19909;-76
2021/12/25 07:32:08;;;;;;;;;;;6.20;99.90;;;;;;5032455;28;19905;-76
2021/12/25 07:34:34;;;;;;;;;;;7.40;99.90;;;;;;5031743;28;19916;-76
2021/12/25 07:37:00;;;;;;;;;;;6.80;99.90;;;;;;5031468;28;19951;-76
2021/12/25 07:39:26;;;;;;;;;;;6.60;99.90;;;;;;5012356;28;20123;-77
2021/12/25 07:41:51;;;;;;;;;;;7.20;99.90;;;;;;5031338;28;20000;-76
2021/12/25 07:44:17;;;;;;;;;;;7.00;99.90;;;;;;5013980;28;19905;-76
2021/12/25 07:46:44;;;;;;;;;;;6.80;99.90;;;;;;5031159;28;19909;-76
2021/12/25 07:49:16;;;;;;;;;;;6.80;99.90;;;;;;5030324;28;19913;-77
2021/12/25 07:51:41;;;;;;;;;;;6.50;99.90;;;;;;5031550;28;19920;-76
2021/12/25 07:54:08;;;;;;;;;;;7.00;99.90;;;;;;5031849;28;19920;-70
2021/12/25 07:56:33;;;;;;;;;;;7.10;99.90;;;;;;5031063;28;20359;-72
2021/12/25 07:58:59;;;;;;;;;;;7.90;99.90;;;;;;5034211;28;19943;-70
2021/12/25 08:01:24;;;;;;;;;;;6.70;99.90;;;;;;5031128;28;19940;-71
2021/12/25 08:03:50;;;;;;;;;;;7.00;99.90;;;;;;5031592;28;19916;-71
2021/12/25 08:06:15;;;;;;;;;;;7.40;99.90;;;;;;5031008;28;19909;-71
2021/12/25 08:08:42;;;;;;;;;;;7.20;99.90;;;;;;5030858;28;19917;-70
2021/12/25 08:11:07;;;;;;;;;;;7.40;99.90;;;;;;5030750;28;20426;-71
2021/12/25 08:13:33;;;;;;;;;;;8.00;99.90;;;;;;5032797;28;20007;-72
2021/12/25 08:15:58;;;;;;;;;;;7.80;99.90;;;;;;5027669;28;19913;-71
2021/12/25 08:18:24;;;;;;;;;;;8.90;99.90;;;;;;5036164;28;19909;-71
2021/12/25 08:20:49;;;;;;;;;;;8.20;99.90;;;;;;5034505;28;19909;-72
2021/12/25 08:23:15;;;;;;;;;;;7.60;99.90;;;;;;5034914;28;19917;-74
2021/12/25 08:25:40;;;;;;;;;;;7.00;99.90;;;;;;5034348;28;19967;-74
2021/12/25 08:28:06;;;;;;;;;;;8.90;99.90;;;;;;5034834;28;20421;-74
2021/12/25 08:30:31;;;;;;;;;;;8.40;99.90;;;;;;5015128;28;20505;-71
2021/12/25 08:32:58;;;;;;;;;;;8.50;99.90;;;;;;5034739;28;19951;-76
2021/12/25 08:35:25;;;;;;;;;;;9.30;99.90;;;;;;5034222;28;19913;-76
2021/12/25 08:37:51;;;;;;;;;;;7.30;99.90;;;;;;5034190;28;19963;-73
2021/12/25 08:40:17;;;;;;;;;;;;;;;;;;5033757;28;20429;-75
2021/12/25 08:42:50;;;;;;;;;;;8.20;99.90;;;;;;5034383;28;19905;-76
2021/12/25 08:48:00;;;;;;;;;;;;;;;;;;5034044;28;19968;-72
2021/12/25 08:50:26;;;;;;;;;;;8.20;99.90;;;;;;5033963;28;20322;-76
2021/12/25 08:52:52;;;;;;;;;;;8.30;99.90;;;;;;5056775;22;19921;-69
2021/12/25 08:55:18;;;;;;;;;;;8.00;99.90;;;;;;5065114;28;19912;-70
2021/12/25 08:57:43;;;;;;;;;;;8.30;99.90;;;;;;5054785;28;20321;-70
2021/12/25 09:00:09;;;;;;;;;;;8.70;99.90;;;;;;5052862;28;19912;-70
2021/12/25 09:02:35;;;;;;;;;;;;;;;;;;5043525;28;19909;-66
2021/12/25 09:05:01;;;;;;;;;;;8.70;99.90;;;;;;5013024;28;20595;-63
2021/12/25 09:07:27;;;;;;;;;;;8.90;99.90;;;;;;5016152;28;19909;-64
2021/12/25 09:09:52;;;;;;;;;;;8.40;99.90;;;;;;5038531;28;20256;-63
2021/12/25 09:12:20;;;;;;;;;;;7.50;99.90;;;;;;5046585;28;19913;-64
2021/12/25 09:14:45;;;;;;;;;;;8.80;99.90;;;;;;5048144;28;20352;-65
2021/12/25 09:17:12;;;;;;;;;;;8.80;99.90;;;;;;5047786;28;19909;-65
2021/12/25 09:19:38;;;;;;;;;;;;;;;;;;5050352;28;19905;-64
2021/12/25 09:22:03;;;;;;;;;;;9.40;99.90;;;;;;5049664;28;19909;-64
2021/12/25 09:24:29;;;;;;;;;;;8.70;99.90;;;;;;5042000;28;19909;-64
2021/12/25 09:26:54;;;;;;;;;;;9.50;99.90;;;;;;5042570;28;19913;-63
2021/12/25 09:29:20;;;;;;;;;;;8.90;99.90;;;;;;5033410;28;19912;-62
2021/12/25 09:31:46;;;;;;;;;;;9.10;99.90;;;;;;5033991;28;19920;-63
2021/12/25 09:34:11;;;;;;;;;;;9.00;99.90;;;;;;5034046;28;19905;-63
2021/12/25 09:36:37;;;;;;;;;;;8.70;99.90;;;;;;5034044;28;19935;-64
2021/12/25 09:39:04;;;;;;;;;;;8.00;99.90;;;;;;5033013;28;20016;-64
2021/12/25 09:41:30;;;;;;;;;;;9.00;99.90;;;;;;5034033;28;19913;-64
2021/12/25 09:43:55;;;;;;;;;;;8.90;99.90;;;;;;5015787;28;19962;-64
2021/12/25 09:46:21;;;;;;;;;;;9.10;99.90;;;;;;5033643;28;19931;-64
2021/12/25 09:48:48;;;;;;;;;;;9.10;99.90;;;;;;5034199;28;20040;-64
2021/12/25 09:51:14;;;;;;;;;;;;;;;;;;5015662;28;20278;-64
2021/12/25 09:53:40;;;;;;;;;;;8.70;99.90;;;;;;5032756;28;19919;-64
2021/12/25 09:56:05;;;;;;;;;;;9.20;99.90;;;;;;5033134;28;20367;-64
2021/12/25 09:58:31;;;;;;;;;;;8.80;99.90;;;;;;5039238;28;19909;-63
2021/12/25 10:00:57;;;;;;;;;;;10.10;99.90;;;;;;5032683;28;19916;-64
2021/12/25 10:03:23;;;;;;;;;;;;;;;;;;5033177;28;19905;-64
2021/12/25 10:05:49;;;;;;;;;;;9.50;99.90;;;;;;5033564;28;19908;-63
2021/12/25 10:08:17;;;;;;;;;;;9.00;99.90;;;;;;5032249;28;19932;-63
2021/12/25 10:10:42;;;;;;;;;;;10.00;99.90;;;;;;5031987;28;19909;-64
2021/12/25 10:13:27;;;;;;;;;;;9.70;99.90;;;;;;5032831;28;19928;-64
2021/12/25 10:15:55;;;;;;;;;;;10.80;99.90;;;;;;5032972;28;19905;-62
2021/12/25 10:18:27;;;;;;;;;;;10.00;99.90;;;;;;5032478;28;19913;-64
2021/12/25 10:20:53;;;;;;;;;;;;;;;;;;5032440;28;19912;-63
2021/12/25 10:23:25;;;;;;;;;;;10.00;99.90;;;;;;5027874;28;20559;-68
2021/12/25 10:25:55;;;;;;;;;;;10.10;99.90;;;;;;5026580;28;19913;-69
2021/12/25 10:28:22;;;;;;;;;;;11.50;99.90;;;;;;5027846;28;19939;-69
2021/12/25 10:30:48;;;;;;;;;;;9.90;99.90;;;;;;5025977;28;20003;-69
2021/12/25 10:33:13;;;;;;;;;;;;;;;;;;5015947;28;20059;-69
2021/12/25 10:35:39;;;;;;;;;;;10.50;99.90;;;;;;5012723;28;19905;-71
2021/12/25 10:38:10;;;;;;;;;;;8.80;99.90;;;;;;5012083;28;19959;-70
2021/12/25 10:40:36;;;;;;;;;;;9.70;99.90;;;;;;5021596;28;19909;-70
2021/12/25 10:43:02;;;;;;;;;;;10.60;99.90;;;;;;5032631;28;19905;-70
2021/12/25 10:45:29;;;;;;;;;;;10.00;99.90;;;;;;5031646;28;19917;-70
2021/12/25 10:48:04;;;;;;;;;;;9.70;99.90;;;;;;5032700;28;20299;-70
2021/12/25 10:50:37;;;;;;;;;;;9.70;99.90;;;;;;5030464;28;19917;-70
2021/12/25 10:53:20;;;;;;;;;;;9.70;99.90;;;;;;5012625;28;19916;-70
2021/12/25 10:55:46;;;;;;;;;;;10.30;99.90;;;;;;5022706;28;19905;-68
2021/12/25 10:58:18;;;;;;;;;;;9.50;99.90;;;;;;5028359;28;19909;-68
2021/12/25 11:00:47;;;;;;;;;;;10.50;99.90;;;;;;5021116;28;19909;-67
2021/12/25 11:03:13;;;;;;;;;;;9.60;99.90;;;;;;5020383;28;20000;-68
2021/12/25 11:05:43;;;;;;;;;;;10.20;99.90;;;;;;5026396;28;19941;-66
2021/12/25 11:08:09;;;;;;;;;;;10.20;99.90;;;;;;5031383;28;20244;-68
2021/12/25 11:10:35;;;;;;;;;;;;;;;;;;5029461;28;19919;-69
2021/12/25 11:13:00;;;;;;;;;;;9.40;99.90;;;;;;5031937;28;20019;-69
2021/12/25 11:15:27;;;;;;;;;;;9.40;99.90;;;;;;5020217;28;19963;-69
2021/12/25 11:18:04;;;;;;;;;;;9.30;99.90;;;;;;5030893;28;19931;-69
2021/12/25 11:20:34;;;;;;;;;;;10.60;99.90;;;;;;5030989;28;19975;-70
2021/12/25 11:23:02;;;;;;;;;;;10.10;99.90;;;;;;5021850;28;20007;-70
2021/12/25 11:25:29;;;;;;;;;;;10.50;99.90;;;;;;5031367;28;20298;-70
2021/12/25 11:27:55;;;;;;;;;;;;;;;;;;5024004;28;19951;-69
2021/12/25 11:30:22;;;;;;;;;;;11.40;99.90;;;;;;5030687;28;20358;-70
2021/12/25 11:32:48;;;;;;;;;;;10.60;99.90;;;;;;5029471;28;19958;-70
2021/12/25 11:35:15;;;;;;;;;;;11.20;99.90;;;;;;5031056;28;19932;-70
2021/12/25 11:37:41;;;;;;;;;;;11.10;99.90;;;;;;5023151;28;19949;-70
2021/12/25 11:40:08;;;;;;;;;;;10.80;99.90;;;;;;5032107;28;19909;-70
2021/12/25 11:42:34;;;;;;;;;;;10.60;99.90;;;;;;5034430;28;19945;-71
2021/12/25 11:45:14;;;;;;;;;;;11.20;99.90;;;;;;5032923;28;19912;-70
2021/12/25 11:47:42;;;;;;;;;;;11.20;99.90;;;;;;5015625;28;19909;-70
2021/12/25 11:50:15;;;;;;;;;;;11.40;99.90;;;;;;5035110;28;19916;-68
2021/12/25 11:52:54;;;;;;;;;;;12.30;99.90;;;;;;5035232;28;20011;-70
2021/12/25 12:00:46;;;;;;;;;;;11.70;99.90;;;;;;5035199;28;19912;-71
2021/12/25 12:03:30;;;;;;;;;;;11.80;99.90;;;;;;5035255;28;19916;-71
2021/12/25 12:05:56;;;;;;;;;;;11.80;99.90;;;;;;5017312;28;19905;-71
2021/12/25 12:08:22;;;;;;;;;;;11.40;99.90;;;;;;5034664;28;20283;-71
2021/12/25 12:11:00;;;;;;;;;;;11.20;99.90;;;;;;5034979;28;19936;-71
2021/12/25 12:13:32;;;;;;;;;;;10.70;99.90;;;;;;5033891;28;20374;-71
2021/12/25 12:16:00;;;;;;;;;;;11.60;99.90;;;;;;5035147;28;20308;-70
2021/12/25 12:18:26;;;;;;;;;;;11.70;99.90;;;;;;5034854;28;19909;-73
2021/12/25 12:20:52;;;;;;;;;;;11.30;99.90;;;;;;5034633;28;19916;-73
2021/12/25 12:24:07;;;;;;;;;;;11.00;99.90;;;;;;5017128;28;19937;-71
2021/12/25 12:26:45;;;;;;;;;;;10.40;99.90;;;;;;5034827;28;20393;-72
2021/12/25 12:29:14;;;;;;;;;;;9.40;99.90;;;;;;5034093;28;19984;-71
2021/12/25 12:31:40;;;;;;;;;;;;;;;;;;5034849;28;20366;-72
2021/12/25 12:34:25;;;;;;;;;;;10.20;99.90;;;;;;5034992;28;19923;-71
2021/12/25 12:36:51;;;;;;;;;;;9.80;99.90;;;;;;5017739;28;19917;-71
2021/12/25 12:39:18;;;;;;;;;;;11.20;99.90;;;;;;5036568;28;19913;-71
2021/12/25 12:41:54;;;;;;;;;;;12.00;99.90;;;;;;5037012;28;19940;-69
2021/12/25 12:44:30;;;;;;;;;;;10.90;99.90;;;;;;5021105;28;20035;-75
2021/12/25 12:46:58;;;;;;;;;;;10.70;99.90;;;;;;5039421;28;19913;-73
2021/12/25 12:49:28;;;;;;;;;;;9.80;99.90;;;;;;5039348;28;19936;-74
2021/12/25 12:52:12;;;;;;;;;;;9.80;99.90;;;;;;5039352;28;19909;-80
2021/12/25 12:54:42;;;;;;;;;;;10.80;99.90;;;;;;5028399;28;19920;-74
2021/12/25 12:57:07;;;;;;;;;;;10.50;99.90;;;;;;5038874;28;19913;-74
2021/12/25 12:59:43;;;;;;;;;;;10.60;99.90;;;;;;5035995;28;19912;-75
2021/12/25 13:02:09;;;;;;;;;;;11.70;99.90;;;;;;5033293;28;19945;-76
2021/12/25 13:04:42;;;;;;;;;;;11.50;99.90;;;;;;5034038;28;20369;-74
2021/12/25 13:07:16;;;;;;;;;;;10.50;99.90;;;;;;5034051;28;19962;-75
2021/12/25 13:09:47;;;;;;;;;;;10.80;99.90;;;;;;5033367;28;20002;-75
2021/12/25 13:12:28;;;;;;;;;;;11.10;99.90;;;;;;5033830;28;19909;-76
2021/12/25 13:15:06;;;;;;;;;;;10.50;99.90;;;;;;5033822;28;19913;-74
2021/12/25 13:17:31;;;;;;;;;;;9.20;99.90;;;;;;5033887;28;19905;-75
2021/12/25 13:19:57;;;;;;;;;;;10.20;99.90;;;;;;5033291;28;19915;-74
2021/12/25 13:22:22;;;;;;;;;;;10.10;99.90;;;;;;5025476;28;19920;-76
2021/12/25 13:24:54;;;;;;;;;;;10.90;99.90;;;;;;5033527;28;19937;-76
2021/12/25 13:27:19;;;;;;;;;;;10.40;99.90;;;;;;5033693;28;19916;-74
2021/12/25 13:29:45;;;;;;;;;;;9.60;99.90;;;;;;5033011;28;19909;-74
2021/12/25 13:32:11;;;;;;;;;;;11.20;99.90;;;;;;5007228;28;19924;-74
2021/12/25 13:34:37;;;;;;;;;;;10.40;99.90;;;;;;5022583;28;20356;-74
2021/12/25 13:37:04;;;;;;;;;;;10.60;99.90;;;;;;5037055;28;19905;-74
2021/12/25 13:39:32;;;;;;;;;;;10.50;99.90;;;;;;5023455;28;19909;-75
2021/12/25 13:41:58;;;;;;;;;;;;;;;;;;5026709;28;20275;-76
2021/12/25 13:44:25;;;;;;;;;;;9.00;99.90;;;;;;5021669;28;20379;-78
2021/12/25 13:46:51;;;;;;;;;;;;;;;;;;5021007;28;19909;-77
2021/12/25 13:49:29;;;;;;;;;;;10.90;99.90;;;;;;5022038;28;19964;-76
2021/12/25 13:51:55;;;;;;;;;;;10.80;99.90;;;;;;5026523;28;19909;-76
2021/12/25 13:54:21;;;;;;;;;;;;;;;;;;5021797;28;20405;-76
2021/12/25 13:56:47;;;;;;;;;;;9.90;99.90;;;;;;5023094;28;19918;-77
2021/12/25 13:59:12;;;;;;;;;;;10.10;99.90;;;;;;5021187;28;19967;-76
2021/12/25 14:01:38;;;;;;;;;;;11.20;99.90;;;;;;5022039;28;19905;-76
2021/12/25 14:04:07;;;;;;;;;;;10.50;99.90;;;;;;5003046;28;19909;-76
2021/12/25 14:06:33;;;;;;;;;;;10.60;99.90;;;;;;5021499;28;19912;-77
2021/12/25 14:08:58;;;;;;;;;;;10.40;99.90;;;;;;5020715;28;19913;-72
2021/12/25 14:11:27;;;;;;;;;;;9.90;99.90;;;;;;5021083;28;19943;-72
2021/12/25 14:13:52;;;;;;;;;;;10.20;99.90;;;;;;5033060;28;19905;-74
2021/12/25 14:16:18;;;;;;;;;;;9.90;99.90;;;;;;5032929;28;20007;-74
2021/12/25 14:18:44;;;;;;;;;;;10.30;99.90;;;;;;5015300;28;19909;-71
2021/12/25 14:21:13;;;;;;;;;;;9.50;99.90;;;;;;5032356;28;19996;-71
2021/12/25 14:23:39;;;;;;;;;;;10.00;99.90;;;;;;5032494;28;19905;-74
2021/12/25 14:26:05;;;;;;;;;;;10.20;99.90;;;;;;5015307;28;19920;-73
2021/12/25 14:28:35;;;;;;;;;;;10.00;99.90;;;;;;5032648;28;19916;-74
2021/12/25 14:31:11;;;;;;;;;;;11.50;99.90;;;;;;5029849;28;19935;-76
2021/12/25 14:33:52;;;;;;;;;;;9.60;99.90;;;;;;5023946;28;19918;-75
2021/12/25 14:36:18;;;;;;;;;;;;;;;;;;5026353;28;20254;-76
2021/12/25 14:38:44;;;;;;;;;;;10.80;99.90;;;;;;5021838;28;19906;-75
2021/12/25 14:41:12;;;;;;;;;;;10.00;99.90;;;;;;5024725;28;19996;-75
2021/12/25 14:43:40;;;;;;;;;;;9.60;99.90;;;;;;5023449;28;20069;-75
2021/12/25 14:46:09;;;;;;;;;;;9.40;99.90;;;;;;5022511;28;20384;-74
2021/12/25 14:48:36;;;;;;;;;;;8.80;99.90;;;;;;5023880;28;19909;-74
2021/12/25 14:51:04;;;;;;;;;;;9.00;99.90;;;;;;5025423;28;19909;-75
2021/12/25 14:53:29;;;;;;;;;;;8.50;99.90;;;;;;5031814;28;19943;-75
2021/12/25 14:55:56;;;;;;;;;;;10.20;99.90;;;;;;5023979;28;19914;-75
2021/12/25 14:58:26;;;;;;;;;;;9.80;99.90;;;;;;5033425;28;19913;-75
2021/12/25 15:01:06;;;;;;;;;;;10.20;99.90;;;;;;5032988;28;20264;-76
2021/12/25 15:03:33;;;;;;;;;;;9.90;99.90;;;;;;5016390;28;19909;-74
2021/12/25 15:05:58;;;;;;;;;;;9.50;99.90;;;;;;5035017;28;19915;-74
2021/12/25 15:08:29;;;;;;;;;;;10.40;99.90;;;;;;5029700;28;19936;-74
2021/12/25 15:11:02;;;;;;;;;;;9.90;99.90;;;;;;5045324;28;19944;-76
2021/12/25 15:13:28;;;;;;;;;;;11.00;99.90;;;;;;5046557;28;19912;-76
2021/12/25 15:15:55;;;;;;;;;;;10.10;99.90;;;;;;5047787;28;19909;-76
2021/12/25 15:18:32;;;;;;;;;;;9.80;99.90;;;;;;5045814;28;19917;-75
2021/12/25 15:21:05;;;;;;;;;;;9.10;99.90;;;;;;5045156;28;19920;-75
2021/12/25 15:23:31;;;;;;;;;;;9.40;99.90;;;;;;5047547;28;19912;-76
2021/12/25 15:26:06;;;;;;;;;;;9.80;99.90;;;;;;5046582;28;20031;-76
2021/12/25 15:28:32;;;;;;;;;;;9.50;99.90;;;;;;5039354;28;20295;-76
2021/12/25 15:30:58;;;;;;;;;;;;;;;;;;5036192;28;19906;-76
2021/12/25 15:33:24;;;;;;;;;;;10.50;99.90;;;;;;5036353;28;19905;-76
2021/12/25 15:35:50;;;;;;;;;;;9.00;99.90;;;;;;5039572;28;19912;-76
2021/12/25 15:38:23;;;;;;;;;;;8.10;99.90;;;;;;5038791;28;19910;-76
2021/12/25 15:40:49;;;;;;;;;;;10.00;99.90;;;;;;5031516;28;19913;-76
2021/12/25 15:43:15;;;;;;;;;;;;;;;;;;5040244;28;19912;-76
2021/12/25 15:45:41;;;;;;;;;;;9.30;99.90;;;;;;5036638;28;19906;-75
2021/12/25 15:48:06;;;;;;;;;;;9.10;99.90;;;;;;5066689;22;20309;-74
2021/12/25 15:50:33;;;;;;;;;;;9.90;99.90;;;;;;5076671;28;19908;-75
2021/12/25 15:53:00;;;;;;;;;;;8.40;99.90;;;;;;5068911;28;19905;-77
2021/12/25 15:55:28;;;;;;;;;;;9.60;99.90;;;;;;5055435;28;19909;-77
2021/12/25 15:58:01;;;;;;;;;;;8.10;99.90;;;;;;5055400;28;19958;-79
2021/12/25 16:00:27;;;;;;;;;;;9.50;99.90;;;;;;5055639;28;19908;-78
2021/12/25 16:02:52;;;;;;;;;;;8.40;99.90;;;;;;5056983;28;20294;-79
2021/12/25 16:05:18;;;;;;;;;;;9.00;99.90;;;;;;5057513;28;19909;-79
2021/12/25 16:07:43;;;;;;;;;;;9.00;99.90;;;;;;5058692;28;19958;-79